Time;durP1;ratioP1;P1;durP2;ratioP2;P2;SDS_P1;SDS_P2;PMS_P1;PMS_P2;Temp;Humidity;BMP_temperature;BMP_pressure;BME280_temperature;BME280_humidity;BME280_pressure;Samples;Min_cycle;Max_cycle;Signal;HPM_P1;HPM_P2
2021/12/06 00:01:30;;;;;;;23.80;17.33;;;;;;;;;;5021402;28;20052;-81
2021/12/06 00:03:58;;;;;;;20.40;15.30;;;;;;;;;;5004663;28;20043;-82
2021/12/06 00:06:25;;;;;;;21.25;16.10;;;;;;;;;;5003812;28;20446;-82
2021/12/06 00:08:51;;;;;;;24.85;17.45;;;;;;;;;;5019997;28;20050;-79
2021/12/06 00:11:17;;;;;;;18.83;14.48;;;;;;;;;;5004687;28;20049;-79
2021/12/06 00:13:44;;;;;;;21.30;15.52;;;;;;;;;;5021601;28;20038;-79
2021/12/06 00:16:14;;;;;;;24.10;17.13;;;;;;;;;;5005130;28;20045;-79
2021/12/06 00:18:40;;;;;;;24.15;17.40;;;;;;;;;;5022048;28;20359;-79
2021/12/06 00:21:06;;;;;;;29.10;18.00;;;;;;;;;;5020912;28;20402;-79
2021/12/06 00:23:32;;;;;;;22.65;16.70;;;;;;;;;;5022812;28;20046;-80
2021/12/06 00:25:58;;;;;;;25.48;18.17;;;;;;;;;;5021726;28;20088;-81
2021/12/06 00:28:24;;;;;;;27.00;18.42;;;;;;;;;;5004175;28;20042;-80
2021/12/06 00:30:50;;;;;;;23.05;17.08;;;;;;;;;;5020073;28;20120;-79
2021/12/06 00:33:16;;;;;;;22.13;16.00;;;;;;;;;;5004977;28;20052;-80
2021/12/06 00:35:42;;;;;;;28.90;18.75;;;;;;;;;;5027308;28;20038;-81
2021/12/06 00:38:08;;;;;;;29.80;18.40;;;;;;;;;;5031442;28;20038;-81
2021/12/06 00:40:35;;;;;;;27.77;20.27;;;;;;;;;;5023761;28;20108;-80
2021/12/06 00:43:01;;;;;;;28.77;19.58;;;;;;;;;;5021908;28;20065;-80
2021/12/06 00:45:27;;;;;;;22.70;17.10;;;;;;;;;;5022797;28;20042;-81
2021/12/06 00:47:53;;;;;;;26.02;18.92;;;;;;;;;;5022760;28;20354;-80
2021/12/06 00:50:20;;;;;;;27.02;19.30;;;;;;;;;;5005358;28;20046;-80
2021/12/06 00:52:46;;;;;;;28.27;18.38;;;;;;;;;;5020873;28;20037;-80
2021/12/06 00:55:13;;;;;;;37.10;24.70;;;;;;;;;;5020457;28;20046;-80
2021/12/06 00:57:39;;;;;;;37.60;23.00;;;;;;;;;;5003584;28;20462;-79
2021/12/06 01:00:07;;;;;;;28.38;20.73;;;;;;;;;;5022085;28;20193;-81
2021/12/06 01:02:33;;;;;;;30.00;20.67;;;;;;;;;;5004527;28;20038;-80
2021/12/06 01:04:59;;;;;;;32.42;21.73;;;;;;;;;;5027423;28;20052;-79
2021/12/06 01:07:25;;;;;;;30.35;22.48;;;;;;;;;;5010558;28;20465;-81
2021/12/06 01:09:51;;;;;;;29.83;19.83;;;;;;;;;;5003768;28;20125;-81
2021/12/06 01:12:17;;;;;;;30.42;21.35;;;;;;;;;;5004522;28;20056;-80
2021/12/06 01:14:44;;;;;;;31.20;21.98;;;;;;;;;;5020317;28;20052;-78
2021/12/06 01:17:10;;;;;;;29.30;21.27;;;;;;;;;;5020446;28;20042;-79
2021/12/06 01:19:37;;;;;;;27.17;20.75;;;;;;;;;;5008118;28;20476;-80
2021/12/06 01:22:21;;;;;;;24.63;19.05;;;;;;;;;;5004073;28;20373;-80
2021/12/06 01:25:02;;;;;;;26.40;21.42;;;;;;;;;;5019756;28;20060;-79
2021/12/06 01:40:27;;;;;;;31.92;19.98;;;;;;;;;;5024013;28;20474;-79
2021/12/06 01:42:53;;;;;;;61.40;21.48;;;;;;;;;;5010412;28;20045;-80
2021/12/06 01:45:19;;;;;;;42.50;19.92;;;;;;;;;;5009115;28;20131;-79
2021/12/06 01:47:46;;;;;;;53.88;19.83;;;;;;;;;;5007966;28;20525;-79
2021/12/06 01:50:24;;;;;;;56.53;21.30;;;;;;;;;;5023838;28;20080;-79
2021/12/06 01:52:52;;;;;;;30.40;19.80;;;;;;;;;;5008325;28;20076;-80
2021/12/06 01:55:20;;;;;;;24.33;17.30;;;;;;;;;;5025300;28;20034;-80
2021/12/06 01:57:46;;;;;;;27.48;16.63;;;;;;;;;;5024670;28;20037;-81
2021/12/06 02:00:14;;;;;;;23.55;15.68;;;;;;;;;;5024729;28;20042;-80
2021/12/06 02:02:40;;;;;;;23.35;16.60;;;;;;;;;;5025538;28;20046;-80
2021/12/06 02:05:06;;;;;;;22.85;16.27;;;;;;;;;;5027096;28;20064;-81
2021/12/06 02:07:32;;;;;;;21.90;15.25;;;;;;;;;;5024140;28;20037;-79
2021/12/06 02:09:58;;;;;;;22.60;14.90;;;;;;;;;;5024045;28;20072;-79
2021/12/06 02:12:27;;;;;;;23.58;16.00;;;;;;;;;;5007838;28;20042;-82
2021/12/06 02:15:03;;;;;;;28.33;16.95;;;;;;;;;;5022801;28;20369;-83
2021/12/06 02:17:34;;;;;;;41.83;17.33;;;;;;;;;;5022253;28;20049;-81
2021/12/06 02:20:04;;;;;;;27.30;15.93;;;;;;;;;;5024254;28;20088;-82
2021/12/06 02:22:31;;;;;;;46.33;17.50;;;;;;;;;;5022230;28;20426;-82
2021/12/06 02:24:57;;;;;;;57.33;18.58;;;;;;;;;;5022425;28;20049;-82
2021/12/06 02:27:24;;;;;;;48.40;20.83;;;;;;;;;;5023342;28;20054;-82
2021/12/06 02:29:50;;;;;;;63.58;20.75;;;;;;;;;;5006468;28;20369;-82
2021/12/06 02:32:17;;;;;;;41.08;19.80;;;;;;;;;;5022602;28;20048;-82
2021/12/06 02:34:44;;;;;;;134.55;21.75;;;;;;;;;;5022758;28;20105;-82
2021/12/06 02:37:10;;;;;;;33.22;19.35;;;;;;;;;;5023616;28;20044;-79
2021/12/06 02:39:37;;;;;;;97.60;20.10;;;;;;;;;;5023585;28;20042;-80
2021/12/06 02:42:03;;;;;;;103.65;21.15;;;;;;;;;;5024505;28;20038;-81
2021/12/06 02:44:29;;;;;;;44.40;19.85;;;;;;;;;;5024588;28;20052;-81
2021/12/06 02:46:55;;;;;;;54.78;18.88;;;;;;;;;;5007125;28;20090;-81
2021/12/06 02:49:21;;;;;;;139.35;21.98;;;;;;;;;;5022659;28;20094;-80
2021/12/06 02:51:47;;;;;;;60.42;20.95;;;;;;;;;;5022229;28;20038;-81
2021/12/06 02:54:13;;;;;;;52.97;19.88;;;;;;;;;;5006259;28;20045;-81
2021/12/06 02:56:51;;;;;;;130.68;22.50;;;;;;;;;;5006713;28;20056;-82
2021/12/06 02:59:17;;;;;;;48.70;19.48;;;;;;;;;;5023294;28;20041;-79
2021/12/06 03:01:45;;;;;;;74.93;22.42;;;;;;;;;;5022754;28;20053;-79
2021/12/06 03:04:11;;;;;;;49.92;23.67;;;;;;;;;;5023309;28;20030;-84
2021/12/06 03:06:37;;;;;;;38.33;22.85;;;;;;;;;;5006758;28;20092;-83
2021/12/06 03:09:08;;;;;;;132.32;23.90;;;;;;;;;;5006757;28;20104;-81
2021/12/06 03:11:36;;;;;;;47.53;20.98;;;;;;;;;;5006894;28;20034;-84
2021/12/06 03:14:02;;;;;;;70.65;21.90;;;;;;;;;;5006601;28;20378;-82
2021/12/06 03:16:28;;;;;;;53.15;23.67;;;;;;;;;;5022873;28;20128;-81
2021/12/06 03:18:54;;;;;;;53.70;22.55;;;;;;;;;;5020628;28;20034;-81
2021/12/06 03:21:20;;;;;;;33.75;20.85;;;;;;;;;;5020441;28;20045;-82
2021/12/06 03:23:46;;;;;;;135.57;25.65;;;;;;;;;;5003668;28;20108;-82
2021/12/06 03:26:12;;;;;;;78.93;22.30;;;;;;;;;;5020970;28;20456;-81
2021/12/06 03:28:39;;;;;;;67.95;22.73;;;;;;;;;;5020400;28;20057;-81
2021/12/06 03:31:06;;;;;;;36.28;20.67;;;;;;;;;;5021287;28;20140;-83
2021/12/06 03:33:34;;;;;;;44.00;21.25;;;;;;;;;;5021367;28;20038;-83
2021/12/06 03:36:00;;;;;;;84.57;20.27;;;;;;;;;;5021095;28;20053;-82
2021/12/06 03:38:26;;;;;;;56.72;19.40;;;;;;;;;;5031948;28;20049;-81
2021/12/06 03:40:52;;;;;;;94.03;20.88;;;;;;;;;;5021957;28;20037;-82
2021/12/06 03:43:18;;;;;;;94.32;19.63;;;;;;;;;;5024542;28;20038;-80
2021/12/06 03:45:44;;;;;;;56.95;18.42;;;;;;;;;;5015838;28;20076;-80
2021/12/06 03:48:10;;;;;;;85.15;20.77;;;;;;;;;;5025371;28;20109;-82
2021/12/06 03:50:36;;;;;;;64.43;19.23;;;;;;;;;;5021719;28;20119;-82
2021/12/06 03:53:02;;;;;;;174.48;22.30;;;;;;;;;;5022000;28;20180;-79
2021/12/06 03:55:28;;;;;;;95.80;19.25;;;;;;;;;;5005214;28;20034;-79
2021/12/06 03:57:54;;;;;;;369.10;25.20;;;;;;;;;;5022144;28;20041;-80
2021/12/06 04:00:20;;;;;;;97.28;19.58;;;;;;;;;;5022767;28;20069;-81
2021/12/06 04:02:46;;;;;;;227.10;20.73;;;;;;;;;;5023218;28;20065;-81
2021/12/06 04:05:12;;;;;;;179.07;20.13;;;;;;;;;;5006510;28;20045;-81
2021/12/06 04:07:38;;;;;;;337.83;21.95;;;;;;;;;;5022069;28;20045;-79
2021/12/06 04:10:05;;;;;;;402.48;27.20;;;;;;;;;;5006662;28;20094;-80
2021/12/06 04:12:31;;;;;;;275.80;20.20;;;;;;;;;;5023055;28;20096;-79
2021/12/06 04:14:58;;;;;;;86.75;17.60;;;;;;;;;;5023791;28;20041;-79
2021/12/06 04:17:24;;;;;;;326.63;22.73;;;;;;;;;;5023736;28;20124;-80
2021/12/06 04:19:50;;;;;;;244.10;19.27;;;;;;;;;;5006374;28;20030;-80
2021/12/06 04:22:16;;;;;;;220.18;19.35;;;;;;;;;;5023315;28;20184;-80
2021/12/06 04:24:42;;;;;;;181.50;19.05;;;;;;;;;;5018144;28;20114;-79
2021/12/06 04:27:15;;;;;;;220.98;20.25;;;;;;;;;;5034865;28;20060;-79
2021/12/06 04:29:45;;;;;;;280.92;22.27;;;;;;;;;;5022103;28;20042;-80
2021/12/06 04:32:11;;;;;;;27.15;15.48;;;;;;;;;;5021000;28;20044;-81
2021/12/06 04:34:37;;;;;;;149.63;20.65;;;;;;;;;;5004737;28;20056;-81
2021/12/06 04:37:04;;;;;;;141.80;20.52;;;;;;;;;;5020441;28;20426;-80
2021/12/06 04:39:30;;;;;;;165.43;20.35;;;;;;;;;;5020625;28;20117;-80
2021/12/06 04:41:56;;;;;;;74.22;18.13;;;;;;;;;;5020482;28;20034;-82
2021/12/06 04:44:22;;;;;;;163.88;21.05;;;;;;;;;;5023494;28;20121;-82
2021/12/06 04:46:48;;;;;;;21.85;16.27;;;;;;;;;;5019811;28;20041;-80
2021/12/06 04:49:14;;;;;;;201.73;22.00;;;;;;;;;;5020598;28;20064;-82
2021/12/06 04:51:41;;;;;;;202.43;21.42;;;;;;;;;;5020746;28;20042;-81
2021/12/06 04:54:07;;;;;;;47.13;18.50;;;;;;;;;;5020255;28;20038;-80
2021/12/06 04:56:34;;;;;;;362.95;24.35;;;;;;;;;;5004673;28;20057;-83
2021/12/06 04:59:00;;;;;;;392.95;25.45;;;;;;;;;;5003712;28;20094;-80
2021/12/06 05:01:28;;;;;;;270.90;22.25;;;;;;;;;;5021472;28;20058;-82
2021/12/06 05:03:54;;;;;;;73.50;16.90;;;;;;;;;;5021918;28;20104;-80
2021/12/06 05:06:22;;;;;;;227.48;20.92;;;;;;;;;;5020474;28;20054;-82
2021/12/06 05:08:50;;;;;;;174.68;20.23;;;;;;;;;;5005275;28;20042;-83
2021/12/06 05:11:16;;;;;;;118.20;18.67;;;;;;;;;;5026557;28;20521;-81
2021/12/06 05:13:42;;;;;;;93.78;19.77;;;;;;;;;;5040301;28;20054;-78
2021/12/06 05:16:08;;;;;;;414.85;28.77;;;;;;;;;;5030278;28;20041;-81
2021/12/06 05:18:34;;;;;;;48.17;20.08;;;;;;;;;;5025695;28;20076;-81
2021/12/06 05:21:00;;;;;;;465.50;26.52;;;;;;;;;;5010686;28;20042;-82
2021/12/06 05:23:26;;;;;;;80.60;19.98;;;;;;;;;;5008792;28;20038;-82
2021/12/06 05:25:52;;;;;;;37.33;18.05;;;;;;;;;;5012036;28;20045;-82
2021/12/06 05:28:22;;;;;;;50.80;17.88;;;;;;;;;;5014395;28;20065;-81
2021/12/06 05:30:53;;;;;;;130.85;18.88;;;;;;;;;;5009994;28;20037;-80
2021/12/06 05:33:28;;;;;;;35.22;16.52;;;;;;;;;;5028457;28;20042;-82
2021/12/06 05:35:54;;;;;;;42.15;16.48;;;;;;;;;;5009638;28;20038;-80
2021/12/06 05:38:20;;;;;;;407.05;24.70;;;;;;;;;;5007941;28;20103;-80
2021/12/06 05:40:47;;;;;;;44.42;16.45;;;;;;;;;;5008904;28;20085;-82
2021/12/06 05:43:13;;;;;;;201.10;20.13;;;;;;;;;;5023995;28;20042;-82
2021/12/06 05:45:39;;;;;;;192.50;25.88;;;;;;;;;;5023205;28;20038;-80
2021/12/06 05:48:05;;;;;;;92.78;25.10;;;;;;;;;;5021551;28;20049;-80
2021/12/06 05:50:31;;;;;;;615.72;32.55;;;;;;;;;;5020757;28;20482;-80
2021/12/06 05:52:57;;;;;;;122.20;23.75;;;;;;;;;;5003875;28;20080;-80
2021/12/06 05:55:24;;;;;;;51.65;22.27;;;;;;;;;;5028216;28;20054;-82
2021/12/06 05:57:50;;;;;;;127.75;23.73;;;;;;;;;;5023922;28;20048;-82
2021/12/06 06:00:17;;;;;;;524.92;29.55;;;;;;;;;;5038464;28;20102;-80
2021/12/06 06:02:43;;;;;;;93.40;20.15;;;;;;;;;;5035339;28;20061;-81
2021/12/06 06:05:09;;;;;;;132.73;21.13;;;;;;;;;;5005775;28;20063;-82
2021/12/06 06:07:35;;;;;;;547.03;28.05;;;;;;;;;;5005976;28;20061;-82
2021/12/06 06:10:01;;;;;;;469.27;27.10;;;;;;;;;;5022801;28;20405;-83
2021/12/06 06:12:27;;;;;;;52.47;18.67;;;;;;;;;;5005410;28;20064;-82
2021/12/06 06:14:53;;;;;;;137.85;21.98;;;;;;;;;;5005421;28;20053;-82
2021/12/06 06:17:20;;;;;;;497.65;26.83;;;;;;;;;;5022488;28;20132;-82
2021/12/06 06:19:50;;;;;;;46.10;18.23;;;;;;;;;;5022492;28;20042;-83
2021/12/06 06:22:18;;;;;;;207.45;21.23;;;;;;;;;;5028639;28;20049;-79
2021/12/06 06:24:44;;;;;;;99.82;18.58;;;;;;;;;;5029438;28;20052;-82
2021/12/06 06:27:10;;;;;;;296.00;20.85;;;;;;;;;;5031984;28;20069;-81
2021/12/06 06:29:36;;;;;;;257.83;20.65;;;;;;;;;;5023553;28;20030;-80
2021/12/06 06:32:02;;;;;;;203.82;20.23;;;;;;;;;;5021529;28;20042;-78
2021/12/06 06:34:28;;;;;;;398.02;23.23;;;;;;;;;;5022407;28;20038;-81
2021/12/06 06:36:55;;;;;;;340.35;22.25;;;;;;;;;;5023136;28;20045;-81
2021/12/06 06:39:22;;;;;;;253.60;21.98;;;;;;;;;;5023377;28;20045;-80
2021/12/06 06:41:48;;;;;;;51.95;17.58;;;;;;;;;;5024215;28;20079;-80
2021/12/06 06:44:15;;;;;;;118.25;18.13;;;;;;;;;;5008426;28;20046;-80
2021/12/06 06:46:41;;;;;;;472.95;27.80;;;;;;;;;;5029118;28;20037;-79
2021/12/06 06:49:07;;;;;;;102.90;17.90;;;;;;;;;;5040867;28;20132;-78
2021/12/06 06:51:33;;;;;;;90.45;17.23;;;;;;;;;;5008067;28;20038;-79
2021/12/06 06:53:59;;;;;;;53.55;16.77;;;;;;;;;;5004811;28;20133;-80
2021/12/06 06:56:25;;;;;;;355.33;22.90;;;;;;;;;;5023505;28;20125;-81
2021/12/06 06:58:51;;;;;;;166.13;19.92;;;;;;;;;;5021954;28;20042;-81
2021/12/06 07:01:18;;;;;;;198.40;19.20;;;;;;;;;;5021718;28;20049;-81
2021/12/06 07:03:44;;;;;;;193.70;21.35;;;;;;;;;;5006519;28;20088;-80
2021/12/06 07:06:10;;;;;;;225.48;20.95;;;;;;;;;;5022873;28;20041;-80
2021/12/06 07:08:36;;;;;;;167.80;16.90;;;;;;;;;;5022144;28;20492;-81
2021/12/06 07:11:02;;;;;;;114.20;17.55;;;;;;;;;;5022120;28;20357;-79
2021/12/06 07:13:28;;;;;;;83.90;16.42;;;;;;;;;;5005022;28;20098;-81
2021/12/06 07:15:54;;;;;;;151.02;19.23;;;;;;;;;;5004195;28;20453;-80
2021/12/06 07:18:20;;;;;;;587.47;27.50;;;;;;;;;;5004915;28;20413;-81
2021/12/06 07:20:46;;;;;;;234.57;21.55;;;;;;;;;;5021407;28;20052;-79
2021/12/06 07:23:12;;;;;;;272.90;23.02;;;;;;;;;;5019468;28;20037;-79
2021/12/06 07:25:39;;;;;;;206.48;22.98;;;;;;;;;;5019997;28;20033;-80
2021/12/06 07:28:06;;;;;;;251.73;23.67;;;;;;;;;;5002254;28;20452;-80
2021/12/06 07:30:32;;;;;;;226.55;23.38;;;;;;;;;;5004321;28;20093;-81
2021/12/06 07:32:58;;;;;;;423.38;31.38;;;;;;;;;;5015435;28;20108;-80
2021/12/06 07:35:26;;;;;;;109.38;21.88;;;;;;;;;;5019156;28;20034;-79
2021/12/06 07:37:52;;;;;;;398.75;27.92;;;;;;;;;;5027809;28;20038;-81
2021/12/06 07:40:18;;;;;;;51.53;20.83;;;;;;;;;;5019317;28;20034;-79
2021/12/06 07:42:44;;;;;;;174.88;25.15;;;;;;;;;;5018941;28;20052;-79
2021/12/06 07:45:11;;;;;;;147.73;25.95;;;;;;;;;;5017716;28;20037;-79
2021/12/06 07:47:37;;;;;;;374.75;29.52;;;;;;;;;;5001413;28;20042;-80
2021/12/06 07:50:07;;;;;;;87.32;22.67;;;;;;;;;;5003126;28;20495;-79
2021/12/06 07:52:33;;;;;;;107.75;23.33;;;;;;;;;;5002545;28;20133;-79
2021/12/06 07:55:00;;;;;;;44.97;22.15;;;;;;;;;;5003173;28;20046;-80
2021/12/06 07:57:27;;;;;;;196.68;25.85;;;;;;;;;;5003539;28;20111;-80
2021/12/06 07:59:53;;;;;;;69.80;24.85;;;;;;;;;;5007547;28;20042;-79
2021/12/06 08:02:19;;;;;;;45.38;24.65;;;;;;;;;;5006324;28;20041;-79
2021/12/06 08:04:48;;;;;;;70.28;27.45;;;;;;;;;;5006812;28;20442;-80
2021/12/06 08:07:14;;;;;;;317.75;31.63;;;;;;;;;;5023273;28;20046;-80
2021/12/06 08:09:40;;;;;;;180.57;29.17;;;;;;;;;;5023859;28;20102;-80
2021/12/06 08:12:06;;;;;;;132.30;30.30;;;;;;;;;;5022401;28;20045;-80
2021/12/06 08:14:32;;;;;;;83.90;28.02;;;;;;;;;;5033466;28;20093;-79
2021/12/06 08:16:58;;;;;;;267.58;30.92;;;;;;;;;;5035288;28;20049;-80
2021/12/06 08:19:24;;;;;;;47.03;26.63;;;;;;;;;;5023527;28;20049;-81
2021/12/06 08:21:51;;;;;;;102.57;27.38;;;;;;;;;;5015650;28;20026;-79
2021/12/06 08:24:17;;;;;;;58.72;26.27;;;;;;;;;;5008782;28;20108;-79
2021/12/06 08:26:44;;;;;;;82.15;27.90;;;;;;;;;;5007341;28;20099;-80
2021/12/06 08:29:12;;;;;;;136.90;26.63;;;;;;;;;;5024806;28;20097;-80
2021/12/06 08:31:38;;;;;;;184.25;26.42;;;;;;;;;;5028170;28;20056;-80
2021/12/06 08:34:04;;;;;;;471.02;30.20;;;;;;;;;;5023122;28;20046;-81
2021/12/06 08:36:30;;;;;;;308.42;28.00;;;;;;;;;;5026607;28;20030;-78
2021/12/06 08:38:57;;;;;;;97.38;23.83;;;;;;;;;;5028351;28;20034;-80
2021/12/06 08:41:24;;;;;;;276.50;25.70;;;;;;;;;;5022285;28;20470;-79
2021/12/06 08:43:50;;;;;;;169.13;20.85;;;;;;;;;;5020958;28;20038;-81
2021/12/06 08:46:20;;;;;;;677.88;31.88;;;;;;;;;;5022247;28;20053;-81
2021/12/06 08:48:47;;;;;;;104.53;21.55;;;;;;;;;;5008477;28;20157;-82
2021/12/06 08:51:15;;;;;;;52.95;18.95;;;;;;;;;;5022848;28;20402;-81
2021/12/06 08:53:41;;;;;;;183.60;22.92;;;;;;;;;;5024780;28;20065;-80
2021/12/06 08:56:10;;;;;;;242.77;22.88;;;;;;;;;;5023171;28;20186;-79
2021/12/06 08:58:36;;;;;;;38.53;19.25;;;;;;;;;;5023080;28;20377;-79
2021/12/06 09:01:02;;;;;;;100.00;21.17;;;;;;;;;;5024744;28;20088;-81
2021/12/06 09:03:30;;;;;;;195.48;21.75;;;;;;;;;;5009253;28;20038;-80
2021/12/06 09:05:56;;;;;;;263.15;23.25;;;;;;;;;;5026525;28;20377;-81
2021/12/06 09:08:23;;;;;;;477.13;27.80;;;;;;;;;;5008087;28;20042;-80
2021/12/06 09:10:51;;;;;;;75.38;22.67;;;;;;;;;;5005336;28;20520;-81
2021/12/06 09:13:18;;;;;;;119.38;23.08;;;;;;;;;;5009006;28;20049;-80
2021/12/06 09:15:44;;;;;;;53.13;22.67;;;;;;;;;;5026357;28;20045;-80
2021/12/06 09:18:10;;;;;;;494.75;28.48;;;;;;;;;;5011377;28;20054;-80
2021/12/06 09:20:37;;;;;;;67.05;21.75;;;;;;;;;;5026442;28;20041;-81
2021/12/06 09:23:04;;;;;;;50.60;20.20;;;;;;;;;;5025455;28;20077;-80
2021/12/06 09:25:30;;;;;;;108.25;20.55;;;;;;;;;;5008180;28;20041;-80
2021/12/06 09:27:57;;;;;;;210.05;21.70;;;;;;;;;;5007266;28;20112;-81
2021/12/06 09:30:24;;;;;;;392.33;24.55;;;;;;;;;;5007148;28;20127;-81
2021/12/06 09:32:50;;;;;;;248.82;22.25;;;;;;;;;;5006767;28;20034;-81
2021/12/06 09:35:21;;;;;;;213.88;21.05;;;;;;;;;;5007038;28;20049;-81
2021/12/06 09:37:48;;;;;;;267.00;23.50;;;;;;;;;;5023561;28;20112;-81
2021/12/06 09:40:15;;;;;;;39.72;18.45;;;;;;;;;;5025506;28;20034;-80
2021/12/06 09:42:42;;;;;;;60.38;19.30;;;;;;;;;;5011866;28;20116;-81
2021/12/06 09:45:09;;;;;;;98.40;19.48;;;;;;;;;;5025385;28;20034;-79
2021/12/06 09:47:35;;;;;;;126.53;19.55;;;;;;;;;;5024713;28;20374;-81
2021/12/06 09:50:01;;;;;;;91.38;18.85;;;;;;;;;;5032260;28;20113;-82
2021/12/06 09:52:27;;;;;;;170.43;21.08;;;;;;;;;;5029972;28;20037;-79
2021/12/06 09:54:53;;;;;;;49.58;18.05;;;;;;;;;;5020734;28;20034;-80
2021/12/06 09:57:19;;;;;;;321.17;24.40;;;;;;;;;;5018368;28;20038;-80
2021/12/06 09:59:45;;;;;;;60.58;17.60;;;;;;;;;;5019840;28;20369;-80
2021/12/06 10:02:18;;;;;;;135.48;20.23;;;;;;;;;;5023707;28;20049;-79
2021/12/06 10:04:47;;;;;;;105.60;19.42;;;;;;;;;;5021605;28;20113;-82
2021/12/06 10:07:13;;;;;;;121.13;20.50;;;;;;;;;;5021989;28;20041;-79
2021/12/06 10:09:39;;;;;;;115.32;19.75;;;;;;;;;;5022385;28;20038;-78
2021/12/06 10:12:06;;;;;;;201.23;21.45;;;;;;;;;;5021978;28;20042;-79
2021/12/06 10:14:32;;;;;;;76.07;20.30;;;;;;;;;;5006330;28;20042;-79
2021/12/06 10:16:58;;;;;;;168.40;23.60;;;;;;;;;;5005000;28;20057;-80
2021/12/06 10:19:25;;;;;;;177.07;23.40;;;;;;;;;;5021502;28;20034;-79
2021/12/06 10:21:52;;;;;;;101.15;22.67;;;;;;;;;;5020043;28;20049;-79
2021/12/06 10:24:19;;;;;;;47.13;21.70;;;;;;;;;;5006854;28;20454;-78
2021/12/06 10:26:45;;;;;;;114.35;21.15;;;;;;;;;;5005368;28;20041;-77
2021/12/06 10:29:22;;;;;;;173.18;20.58;;;;;;;;;;5006689;28;20042;-77
2021/12/06 10:31:49;;;;;;;198.43;20.80;;;;;;;;;;5024955;28;20486;-78
2021/12/06 10:34:16;;;;;;;143.85;20.73;;;;;;;;;;5033662;28;20109;-80
2021/12/06 10:36:42;;;;;;;145.77;21.45;;;;;;;;;;5012472;28;20048;-81
2021/12/06 10:39:08;;;;;;;135.25;22.00;;;;;;;;;;5026638;28;20091;-81
2021/12/06 10:41:35;;;;;;;68.45;20.02;;;;;;;;;;5009535;28;20107;-82
2021/12/06 10:44:03;;;;;;;36.17;19.00;;;;;;;;;;5028206;28;20053;-80
2021/12/06 10:46:29;;;;;;;113.35;22.75;;;;;;;;;;5013085;28;20038;-81
2021/12/06 10:48:56;;;;;;;408.73;27.42;;;;;;;;;;5033649;28;20038;-80
2021/12/06 10:51:25;;;;;;;73.80;19.10;;;;;;;;;;5014177;28;20034;-80
2021/12/06 10:54:02;;;;;;;181.00;23.35;;;;;;;;;;5024160;28;20046;-78
2021/12/06 10:56:47;;;;;;;74.07;19.38;;;;;;;;;;5019022;28;20437;-80
2021/12/06 10:59:18;;;;;;;41.25;19.70;;;;;;;;;;5020924;28;20056;-80
2021/12/06 11:01:44;;;;;;;108.03;20.63;;;;;;;;;;5003932;28;20060;-80
2021/12/06 11:04:11;;;;;;;102.32;19.70;;;;;;;;;;5020988;28;20052;-80
2021/12/06 11:06:44;;;;;;;189.30;21.88;;;;;;;;;;5005434;28;20053;-79
2021/12/06 11:09:14;;;;;;;208.43;20.90;;;;;;;;;;5009401;28;20102;-79
2021/12/06 11:11:41;;;;;;;226.05;21.45;;;;;;;;;;5029903;28;20038;-80
2021/12/06 11:14:11;;;;;;;36.45;18.52;;;;;;;;;;5029484;28;20048;-81
2021/12/06 11:16:39;;;;;;;185.82;23.13;;;;;;;;;;5035437;28;20133;-80
2021/12/06 11:19:15;;;;;;;189.90;21.48;;;;;;;;;;5033516;28;20053;-79
2021/12/06 11:21:54;;;;;;;83.68;20.90;;;;;;;;;;5013910;28;20064;-83
2021/12/06 11:24:20;;;;;;;31.80;18.30;;;;;;;;;;5007138;28;20042;-82
2021/12/06 11:26:50;;;;;;;62.13;20.15;;;;;;;;;;5025243;28;20049;-80
2021/12/06 11:29:16;;;;;;;45.72;20.98;;;;;;;;;;5026171;28;20119;-79
2021/12/06 11:31:43;;;;;;;44.90;21.63;;;;;;;;;;5024005;28;20509;-81
2021/12/06 11:34:09;;;;;;;44.80;21.63;;;;;;;;;;5010251;28;20443;-80
2021/12/06 11:36:35;;;;;;;30.23;20.88;;;;;;;;;;5009072;28;20458;-82
2021/12/06 11:39:03;;;;;;;30.77;22.33;;;;;;;;;;5028227;28;20066;-79
2021/12/06 11:41:30;;;;;;;30.27;21.77;;;;;;;;;;5026995;28;20038;-78
2021/12/06 11:43:56;;;;;;;31.95;22.25;;;;;;;;;;5012930;28;20041;-78
2021/12/06 11:46:29;;;;;;;35.95;20.80;;;;;;;;;;5027813;28;20042;-80
2021/12/06 11:48:55;;;;;;;31.52;20.40;;;;;;;;;;5022194;28;20114;-81
2021/12/06 11:51:21;;;;;;;28.58;20.17;;;;;;;;;;5003847;28;20052;-81
2021/12/06 11:53:48;;;;;;;29.98;20.77;;;;;;;;;;5027563;28;20044;-78
2021/12/06 11:56:17;;;;;;;36.20;21.42;;;;;;;;;;5021542;28;20042;-77
2021/12/06 11:58:46;;;;;;;28.25;21.25;;;;;;;;;;5020786;28;20053;-80
2021/12/06 12:01:12;;;;;;;30.98;21.75;;;;;;;;;;5003617;28;20038;-80
2021/12/06 12:03:39;;;;;;;29.75;20.90;;;;;;;;;;5020703;28;20041;-80
2021/12/06 12:06:23;;;;;;;26.40;20.38;;;;;;;;;;5004724;28;20073;-81
2021/12/06 12:08:50;;;;;;;30.77;22.52;;;;;;;;;;5020538;28;20045;-81
2021/12/06 12:11:16;;;;;;;32.92;23.15;;;;;;;;;;5020459;28;20038;-81
2021/12/06 12:13:43;;;;;;;32.75;23.88;;;;;;;;;;5003240;28;20095;-81
2021/12/06 12:16:10;;;;;;;31.08;21.88;;;;;;;;;;5020232;28;20038;-80
2021/12/06 12:18:37;;;;;;;31.40;22.55;;;;;;;;;;5020797;28;20112;-79
2021/12/06 12:21:03;;;;;;;38.10;22.25;;;;;;;;;;5021243;28;20065;-80
2021/12/06 12:23:32;;;;;;;29.80;20.10;;;;;;;;;;5020879;28;20048;-80
2021/12/06 12:26:02;;;;;;;24.00;14.80;;;;;;;;;;5024021;28;20056;-82
2021/12/06 12:28:36;;;;;;;21.38;13.55;;;;;;;;;;5024631;28;20480;-79
2021/12/06 12:31:02;;;;;;;18.67;11.35;;;;;;;;;;5007870;28;20052;-81
2021/12/06 12:33:28;;;;;;;19.67;11.55;;;;;;;;;;5007530;28;20073;-82
2021/12/06 12:35:59;;;;;;;16.50;11.32;;;;;;;;;;5025908;28;20041;-84
2021/12/06 12:38:26;;;;;;;14.88;9.68;;;;;;;;;;5024974;28;20103;-84
2021/12/06 12:40:57;;;;;;;14.25;9.35;;;;;;;;;;5023447;28;20063;-79
2021/12/06 12:43:24;;;;;;;17.23;9.57;;;;;;;;;;5019984;28;20128;-80
2021/12/06 12:45:52;;;;;;;13.15;8.88;;;;;;;;;;5022505;28;20049;-81
2021/12/06 12:48:23;;;;;;;13.13;8.70;;;;;;;;;;5021793;28;20045;-81
2021/12/06 12:51:01;;;;;;;16.33;9.15;;;;;;;;;;5023439;28;20049;-80
2021/12/06 12:53:27;;;;;;;11.82;8.55;;;;;;;;;;5024435;28;20060;-83
2021/12/06 12:55:53;;;;;;;12.70;7.97;;;;;;;;;;5004486;28;20042;-79
2021/12/06 12:58:20;;;;;;;11.13;7.38;;;;;;;;;;5006195;28;20094;-81
2021/12/06 13:00:46;;;;;;;14.98;7.90;;;;;;;;;;5025220;28;20465;-80
2021/12/06 13:03:43;;;;;;;10.88;7.65;;;;;;;;;;5019961;28;20120;-80
2021/12/06 13:06:21;;;;;;;15.13;8.05;;;;;;;;;;5019062;28;20052;-81
2021/12/06 13:08:48;;;;;;;12.73;7.70;;;;;;;;;;5018192;28;20052;-78
2021/12/06 13:11:14;;;;;;;11.65;7.10;;;;;;;;;;5001330;28;20046;-78
2021/12/06 13:13:45;;;;;;;10.45;6.22;;;;;;;;;;5000979;28;20042;-79
2021/12/06 13:16:36;;;;;;;9.80;6.07;;;;;;;;;;5021527;28;20113;-80
2021/12/06 13:19:11;;;;;;;11.90;6.22;;;;;;;;;;5021971;28;20038;-79
2021/12/06 13:21:44;;;;;;;7.93;5.55;;;;;;;;;;5019679;28;20034;-79
2021/12/06 13:24:10;;;;;;;10.10;4.85;;;;;;;;;;5021915;28;20431;-80
2021/12/06 13:26:37;;;;;;;9.23;5.18;;;;;;;;;;5022701;28;20069;-79
2021/12/06 13:29:03;;;;;;;7.00;4.70;;;;;;;;;;5019249;28;20369;-79
2021/12/06 13:31:29;;;;;;;8.48;4.80;;;;;;;;;;5017837;28;20093;-79
2021/12/06 13:33:56;;;;;;;11.05;4.90;;;;;;;;;;5020633;28;20046;-80
2021/12/06 13:36:42;;;;;;;8.80;4.90;;;;;;;;;;5024318;28;20038;-80
2021/12/06 13:39:34;;;;;;;9.82;4.65;;;;;;;;;;5025687;28;20053;-80
2021/12/06 13:42:01;;;;;;;8.02;4.53;;;;;;;;;;5017118;28;20046;-77
2021/12/06 13:44:40;;;;;;;9.80;5.38;;;;;;;;;;5023568;28;20042;-80
2021/12/06 13:47:09;;;;;;;7.95;4.90;;;;;;;;;;5026625;28;20037;-81
2021/12/06 13:49:35;;;;;;;9.23;4.95;;;;;;;;;;5025941;28;20038;-80
2021/12/06 13:52:03;;;;;;;11.15;4.97;;;;;;;;;;5025525;28;20038;-79
2021/12/06 13:54:33;;;;;;;7.75;5.22;;;;;;;;;;5026339;28;20045;-81
2021/12/06 13:57:02;;;;;;;11.73;6.10;;;;;;;;;;5024665;28;20073;-79
2021/12/06 13:59:43;;;;;;;9.80;4.93;;;;;;;;;;5024633;28;20364;-80
2021/12/06 14:02:10;;;;;;;8.82;5.10;;;;;;;;;;5023509;28;20049;-80
2021/12/06 14:04:37;;;;;;;7.85;5.38;;;;;;;;;;5026815;28;20041;-78
2021/12/06 14:07:06;;;;;;;11.32;5.63;;;;;;;;;;5026314;28;20037;-80
2021/12/06 14:09:36;;;;;;;8.38;5.13;;;;;;;;;;5007504;28;20485;-79
2021/12/06 14:12:07;;;;;;;9.10;5.13;;;;;;;;;;5021623;28;20064;-79
2021/12/06 14:14:37;;;;;;;8.82;4.85;;;;;;;;;;5006291;28;20038;-80
2021/12/06 14:17:04;;;;;;;10.13;5.72;;;;;;;;;;5011431;28;20052;-79
2021/12/06 14:19:30;;;;;;;10.48;5.35;;;;;;;;;;5008194;28;20136;-80
2021/12/06 14:21:56;;;;;;;8.93;5.55;;;;;;;;;;5023236;28;20038;-81
2021/12/06 14:24:26;;;;;;;10.48;6.20;;;;;;;;;;5007108;28;20346;-78
2021/12/06 14:26:52;;;;;;;10.90;5.80;;;;;;;;;;5023733;28;20513;-79
2021/12/06 14:29:19;;;;;;;15.95;6.53;;;;;;;;;;5007810;28;20057;-79